Time;durP1;ratioP1;P1;durP2;ratioP2;P2;SDS_P1;SDS_P2;PMS_P1;PMS_P2;Temp;Humidity;BMP_temperature;BMP_pressure;BME280_temperature;BME280_humidity;BME280_pressure;Samples;Min_cycle;Max_cycle;Signal;HPM_P1;HPM_P2
2023/10/27 00:01:41;;;;;;;2.80;1.00;;;10.10;6.60;;;;;;4961791;28;20422;-82
2023/10/27 00:04:06;;;;;;;2.23;1.13;;;10.30;17.20;;;;;;4943530;29;20402;-83
2023/10/27 00:06:32;;;;;;;3.40;1.00;;;10.30;17.70;;;;;;4943838;29;20390;-83
2023/10/27 00:08:58;;;;;;;1.70;0.98;;;10.30;19.70;;;;;;4943138;29;20410;-82
2023/10/27 00:11:25;;;;;;;2.50;0.80;;;10.40;26.80;;;;;;4960955;28;20394;-83
2023/10/27 00:13:51;;;;;;;1.70;1.02;;;10.30;13.80;;;;;;4967914;28;20395;-83
2023/10/27 00:16:16;;;;;;;2.05;0.77;;;10.20;28.30;;;;;;4970212;28;20392;-83
2023/10/27 00:18:42;;;;;;;1.23;0.70;;;10.20;17.90;;;;;;4965703;28;20396;-84
2023/10/27 00:21:07;;;;;;;2.30;0.80;;;10.30;12.20;;;;;;4963219;28;20384;-82
2023/10/27 00:23:33;;;;;;;1.73;0.70;;;10.30;17.40;;;;;;4979480;28;20432;-84
2023/10/27 00:25:58;;;;;;;1.50;0.90;;;10.20;7.00;;;;;;4962653;28;20804;-83
2023/10/27 00:28:24;;;;;;;2.15;0.70;;;10.20;4.10;;;;;;4959865;28;20435;-83
2023/10/27 00:30:49;;;;;;;1.30;0.80;;;10.20;4.80;;;;;;4959136;29;20830;-83
2023/10/27 00:33:15;;;;;;;1.30;0.73;;;10.20;7.10;;;;;;4952090;28;20483;-84
2023/10/27 00:35:40;;;;;;;1.70;0.80;;;10.10;14.00;;;;;;4955093;28;20436;-84
2023/10/27 00:38:06;;;;;;;2.30;0.90;;;10.10;13.50;;;;;;4950387;28;20393;-84
2023/10/27 00:40:32;;;;;;;1.90;0.90;;;10.10;16.30;;;;;;4964260;28;20406;-84
2023/10/27 00:42:57;;;;;;;2.20;0.70;;;10.10;20.30;;;;;;4974260;28;20490;-84
2023/10/27 00:45:24;;;;;;;3.00;0.80;;;10.10;26.40;;;;;;4956529;29;20394;-84
2023/10/27 00:47:50;;;;;;;0.97;0.60;;;10.30;27.80;;;;;;4954746;28;20824;-84
2023/10/27 00:50:16;;;;;;;1.10;0.80;;;10.20;15.30;;;;;;4953219;29;20394;-82
2023/10/27 00:52:43;;;;;;;1.60;0.90;;;10.20;13.80;;;;;;4995439;28;20426;-82
2023/10/27 00:55:09;;;;;;;0.97;0.80;;;10.20;4.60;;;;;;4977708;28;20398;-82
2023/10/27 00:57:36;;;;;;;1.92;0.80;;;9.80;2.00;;;;;;4982548;28;20426;-81
2023/10/27 01:00:04;;;;;;;2.58;0.80;;;10.10;2.60;;;;;;4977497;28;20388;-84
2023/10/27 01:02:29;;;;;;;2.15;0.90;;;10.20;6.40;;;;;;4972237;28;20520;-84
2023/10/27 01:04:55;;;;;;;2.20;0.80;;;9.80;11.40;;;;;;4956090;28;20488;-83
2023/10/27 01:07:23;;;;;;;1.90;0.70;;;10.20;17.20;;;;;;4961853;28;20397;-84
2023/10/27 01:09:48;;;;;;;2.00;0.70;;;10.20;17.00;;;;;;4978877;28;20388;-83
2023/10/27 01:12:14;;;;;;;1.00;0.60;;;10.10;4.20;;;;;;4978724;28;20396;-84
2023/10/27 01:14:39;;;;;;;1.50;0.77;;;10.10;6.00;;;;;;4943398;29;20393;-84
2023/10/27 01:17:05;;;;;;;1.63;0.80;;;10.30;21.00;;;;;;4943704;29;20413;-84
2023/10/27 01:19:31;;;;;;;1.27;0.80;;;10.20;13.70;;;;;;4943573;28;20402;-84
2023/10/27 01:21:56;;;;;;;1.70;0.80;;;10.00;4.60;;;;;;4956120;28;20423;-83
2023/10/27 01:24:22;;;;;;;1.50;0.93;;;10.10;14.20;;;;;;4978971;28;20431;-84
2023/10/27 01:26:49;;;;;;;1.27;0.90;;;10.30;26.70;;;;;;4983659;28;20760;-84
2023/10/27 01:29:15;;;;;;;1.92;1.10;;;10.30;21.60;;;;;;4959702;28;20388;-84
2023/10/27 01:31:40;;;;;;;0.90;0.80;;;10.00;9.30;;;;;;4960860;28;20415;-84
2023/10/27 01:34:06;;;;;;;1.42;0.90;;;10.30;13.60;;;;;;4978226;28;20410;-84
2023/10/27 01:36:31;;;;;;;1.25;0.90;;;10.20;7.70;;;;;;4967233;28;20395;-83
2023/10/27 01:38:57;;;;;;;2.27;1.00;;;9.40;9.60;;;;;;4989043;28;20399;-81
2023/10/27 01:41:22;;;;;;;0.90;0.77;;;10.20;18.00;;;;;;4988519;28;20431;-83
2023/10/27 01:43:48;;;;;;;1.50;0.90;;;10.10;18.60;;;;;;4964428;28;20400;-83
2023/10/27 01:46:14;;;;;;;2.20;0.90;;;10.20;12.10;;;;;;4979232;28;20495;-83
2023/10/27 01:48:39;;;;;;;2.33;1.20;;;10.20;15.90;;;;;;4977157;28;20395;-83
2023/10/27 01:51:05;;;;;;;2.00;0.80;;;10.20;17.20;;;;;;4959319;28;20946;-83
2023/10/27 01:53:31;;;;;;;1.50;0.90;;;10.20;8.30;;;;;;4967155;28;20485;-82
2023/10/27 01:55:56;;;;;;;2.05;0.70;;;10.10;14.20;;;;;;4944200;29;20420;-84
2023/10/27 01:58:24;;;;;;;1.70;0.63;;;10.20;14.50;;;;;;4955362;28;20392;-84
2023/10/27 02:00:50;;;;;;;1.70;1.00;;;10.20;19.20;;;;;;4959657;28;20402;-82
2023/10/27 02:03:15;;;;;;;2.90;1.00;;;10.20;9.00;;;;;;4968440;28;20421;-83
2023/10/27 02:05:44;;;;;;;2.30;1.20;;;10.20;15.30;;;;;;4939961;29;20417;-83
2023/10/27 02:08:10;;;;;;;2.40;0.70;;;10.10;5.70;;;;;;4940992;29;20481;-83
2023/10/27 02:10:36;;;;;;;1.63;0.67;;;10.20;9.70;;;;;;4956425;28;20479;-83
2023/10/27 02:13:01;;;;;;;1.00;0.60;;;10.10;2.50;;;;;;4954075;28;20453;-82
2023/10/27 02:15:27;;;;;;;0.90;0.63;;;10.10;6.10;;;;;;4956335;29;20498;-83
2023/10/27 02:17:52;;;;;;;2.13;0.80;;;10.10;5.10;;;;;;4949111;29;20401;-82
2023/10/27 02:20:18;;;;;;;4.80;0.80;;;10.10;8.20;;;;;;4974858;28;20433;-82
2023/10/27 02:22:43;;;;;;;2.80;0.60;;;10.20;17.40;;;;;;4960634;28;20425;-84
2023/10/27 02:25:09;;;;;;;1.70;1.00;;;10.20;11.90;;;;;;4961894;28;20444;-83
2023/10/27 02:27:38;;;;;;;1.70;0.90;;;10.10;7.20;;;;;;4952026;28;20914;-83
2023/10/27 02:30:07;;;;;;;2.72;1.10;;;10.20;10.50;;;;;;4964981;28;20395;-83
2023/10/27 02:32:33;;;;;;;1.40;0.73;;;10.20;14.90;;;;;;4962472;28;20392;-83
2023/10/27 02:34:58;;;;;;;1.00;0.70;;;10.20;15.60;;;;;;4963367;28;20460;-83
2023/10/27 02:37:24;;;;;;;1.30;0.80;;;10.20;8.20;;;;;;4964658;28;20385;-83
2023/10/27 02:39:50;;;;;;;1.23;0.90;;;10.20;15.90;;;;;;4948141;29;20767;-83
2023/10/27 02:42:15;;;;;;;1.27;0.80;;;10.40;1.70;;;;;;4965417;29;20719;-83
2023/10/27 02:44:41;;;;;;;2.40;0.90;;;10.00;1.00;;;;;;4965535;28;20436;-82
2023/10/27 02:47:07;;;;;;;0.90;0.80;;;10.10;12.40;;;;;;4995899;28;20384;-82
2023/10/27 02:49:32;;;;;;;2.50;1.00;;;9.80;6.60;;;;;;4960968;29;20437;-83
2023/10/27 02:51:58;;;;;;;3.38;0.90;;;10.10;13.50;;;;;;4952741;28;20404;-83
2023/10/27 02:54:24;;;;;;;1.75;1.00;;;10.00;8.80;;;;;;4976837;28;20444;-84
2023/10/27 02:56:49;;;;;;;1.90;1.00;;;10.00;7.40;;;;;;4961465;29;20394;-83
2023/10/27 02:59:15;;;;;;;2.27;0.90;;;10.10;6.50;;;;;;4944294;29;20413;-82
2023/10/27 03:01:43;;;;;;;1.58;0.60;;;10.00;1.90;;;;;;4960679;29;20397;-83
2023/10/27 03:04:09;;;;;;;2.45;1.30;;;10.10;10.00;;;;;;4944388;29;20814;-83
2023/10/27 03:06:35;;;;;;;3.13;1.00;;;9.90;3.10;;;;;;4954121;28;20392;-83
2023/10/27 03:09:01;;;;;;;1.70;0.77;;;10.10;5.50;;;;;;4951658;29;20408;-83
2023/10/27 03:11:26;;;;;;;1.90;0.80;;;10.20;10.60;;;;;;4960395;28;20477;-82
2023/10/27 03:13:52;;;;;;;1.10;0.60;;;10.10;1.00;;;;;;4943460;29;20401;-83
2023/10/27 03:16:18;;;;;;;1.52;0.90;;;9.60;1.00;;;;;;4943333;29;20398;-84
2023/10/27 03:18:43;;;;;;;2.33;0.88;;;10.10;1.00;;;;;;4960712;28;20382;-83
2023/10/27 03:21:09;;;;;;;0.90;0.80;;;11.90;7.80;;;;;;4943612;29;20386;-83
2023/10/27 03:23:34;;;;;;;2.53;1.30;;;10.20;1.00;;;;;;4971351;28;20840;-83
2023/10/27 03:26:00;;;;;;;2.30;1.10;;;10.10;4.60;;;;;;4980345;28;20388;-83
2023/10/27 03:28:25;;;;;;;2.88;1.10;;;10.10;5.70;;;;;;4948977;28;20449;-82
2023/10/27 03:30:51;;;;;;;1.33;0.80;;;10.10;1.50;;;;;;4943858;29;20440;-83
2023/10/27 03:33:17;;;;;;;0.80;0.70;;;10.00;3.70;;;;;;4960107;28;20770;-83
2023/10/27 03:35:44;;;;;;;2.60;1.15;;;10.00;14.60;;;;;;4942255;29;20401;-83
2023/10/27 03:38:10;;;;;;;1.70;1.20;;;10.20;20.80;;;;;;4965575;28;20428;-83
2023/10/27 03:40:39;;;;;;;2.50;1.20;;;10.10;7.00;;;;;;4978622;28;20776;-83
2023/10/27 03:43:06;;;;;;;1.30;0.80;;;10.30;9.60;;;;;;4961916;28;20479;-82
2023/10/27 03:45:33;;;;;;;1.60;0.70;;;10.20;1.00;;;;;;4945073;28;20481;-83
2023/10/27 03:47:59;;;;;;;1.33;1.05;;;10.20;1.60;;;;;;4959973;28;20481;-82
2023/10/27 03:50:25;;;;;;;0.90;0.50;;;10.30;2.10;;;;;;4960388;28;20417;-83
2023/10/27 03:52:50;;;;;;;1.50;0.40;;;10.80;1.00;;;;;;4958296;28;20409;-83
2023/10/27 03:55:16;;;;;;;1.20;0.40;;;11.30;1.00;;;;;;4958447;28;20382;-82
2023/10/27 03:57:42;;;;;;;0.40;0.30;;;11.50;1.00;;;;;;4959742;28;20402;-82
2023/10/27 04:00:08;;;;;;;0.40;0.30;;;11.90;1.00;;;;;;4959607;28;20882;-81
2023/10/27 04:02:34;;;;;;;1.20;0.50;;;12.00;1.00;;;;;;4959430;28;20420;-82
2023/10/27 04:05:00;;;;;;;0.40;0.30;;;11.90;1.00;;;;;;4942300;29;20389;-81
2023/10/27 04:07:27;;;;;;;0.50;0.30;;;12.00;1.00;;;;;;4941904;28;20382;-82
2023/10/27 04:09:52;;;;;;;0.40;0.30;;;11.90;1.00;;;;;;4999865;23;20446;-82
2023/10/27 04:12:18;;;;;;;0.80;0.30;;;12.10;1.00;;;;;;4993430;28;20397;-82
2023/10/27 04:14:43;;;;;;;0.80;0.30;;;12.10;1.00;;;;;;4993052;28;20425;-81
2023/10/27 04:17:09;;;;;;;0.50;0.40;;;11.90;1.00;;;;;;4984187;28;20382;-84
2023/10/27 04:19:34;;;;;;;0.50;0.30;;;12.00;1.00;;;;;;5004021;28;20383;-82
2023/10/27 04:22:01;;;;;;;0.50;0.40;;;11.50;1.00;;;;;;5002698;28;20430;-83
2023/10/27 04:24:26;;;;;;;0.40;0.20;;;12.00;1.00;;;;;;4985842;28;20418;-83
2023/10/27 04:26:52;;;;;;;0.50;0.40;;;12.10;1.00;;;;;;5004641;28;20414;-83
2023/10/27 04:29:18;;;;;;;0.60;0.38;;;11.90;1.00;;;;;;4995225;28;20429;-84
2023/10/27 04:31:44;;;;;;;0.65;0.40;;;11.90;1.00;;;;;;4984515;28;20390;-81
2023/10/27 04:34:10;;;;;;;0.70;0.40;;;11.90;1.00;;;;;;4999897;28;20391;-84
2023/10/27 04:36:36;;;;;;;0.70;0.37;;;11.90;1.00;;;;;;5001041;28;20386;-84
2023/10/27 04:39:03;;;;;;;0.40;0.30;;;11.80;1.00;;;;;;4980524;28;20390;-83
2023/10/27 04:41:30;;;;;;;0.60;0.50;;;11.90;1.00;;;;;;4996288;28;20390;-85
2023/10/27 04:43:56;;;;;;;1.30;0.30;;;11.70;1.00;;;;;;4979045;28;20414;-84
2023/10/27 04:46:22;;;;;;;0.70;0.40;;;11.70;1.00;;;;;;4976037;28;20485;-84
2023/10/27 04:48:47;;;;;;;1.90;0.47;;;11.90;1.00;;;;;;4992631;28;20899;-83
2023/10/27 04:51:13;;;;;;;1.10;0.40;;;11.00;1.00;;;;;;4991229;28;20399;-84
2023/10/27 04:53:39;;;;;;;0.60;0.30;;;11.90;1.00;;;;;;4991842;28;20405;-85
2023/10/27 04:56:04;;;;;;;0.60;0.47;;;11.90;1.00;;;;;;4978931;28;21086;-83
2023/10/27 04:58:30;;;;;;;0.70;0.40;;;11.90;1.00;;;;;;4976854;28;20391;-83
2023/10/27 05:00:55;;;;;;;0.73;0.53;;;11.20;1.00;;;;;;4982585;28;20489;-83
2023/10/27 05:03:21;;;;;;;0.70;0.50;;;11.90;1.00;;;;;;5010036;28;20422;-82
2023/10/27 05:05:47;;;;;;;0.70;0.50;;;11.80;1.00;;;;;;5009974;28;20397;-82
2023/10/27 05:08:12;;;;;;;0.60;0.47;;;11.90;1.00;;;;;;4994934;28;22665;-84
2023/10/27 05:10:39;;;;;;;1.50;0.60;;;11.90;1.00;;;;;;4991973;28;20453;-83
2023/10/27 05:13:04;;;;;;;0.60;0.40;;;11.90;1.00;;;;;;4992719;28;20446;-82
2023/10/27 05:15:30;;;;;;;0.90;0.60;;;11.80;1.00;;;;;;5008754;28;20465;-83
2023/10/27 05:17:55;;;;;;;0.88;0.40;;;11.90;1.00;;;;;;5005516;28;20406;-83
2023/10/27 05:20:21;;;;;;;0.50;0.40;;;11.70;1.00;;;;;;5003375;28;20952;-83
2023/10/27 05:22:47;;;;;;;0.70;0.50;;;11.80;1.00;;;;;;4998178;28;20414;-81
2023/10/27 05:25:12;;;;;;;0.70;0.50;;;11.80;1.00;;;;;;4999590;28;20519;-83
2023/10/27 05:27:38;;;;;;;0.50;0.30;;;11.80;1.00;;;;;;4983750;28;20406;-83
2023/10/27 05:30:04;;;;;;;1.23;0.45;;;11.30;1.00;;;;;;4974750;28;20465;-84
2023/10/27 05:32:29;;;;;;;0.70;0.50;;;11.80;1.00;;;;;;4988244;28;20428;-83
2023/10/27 05:34:55;;;;;;;0.93;0.60;;;11.80;1.00;;;;;;4994833;28;20394;-84
2023/10/27 05:37:21;;;;;;;0.50;0.40;;;11.70;1.00;;;;;;4977852;28;20398;-82
2023/10/27 05:39:47;;;;;;;0.63;0.43;;;11.80;1.00;;;;;;4997314;28;20398;-82
2023/10/27 05:42:14;;;;;;;0.50;0.40;;;11.70;1.00;;;;;;4980189;28;20428;-84
2023/10/27 05:44:41;;;;;;;1.20;0.40;;;11.80;1.00;;;;;;4980082;28;20394;-86
2023/10/27 05:47:07;;;;;;;0.50;0.40;;;11.90;1.00;;;;;;4985702;28;20405;-87
2023/10/27 05:49:32;;;;;;;0.60;0.40;;;11.80;1.00;;;;;;4995927;28;20481;-87
2023/10/27 05:52:02;;;;;;;1.00;0.40;;;11.90;1.00;;;;;;4993877;28;20414;-83
2023/10/27 05:54:43;;;;;;;0.80;0.50;;;11.90;1.00;;;;;;4978040;28;20390;-90
2023/10/27 05:58:05;;;;;;;;;;;;;;;;;;;;;
2023/10/27 06:00:43;;;;;;;0.93;0.50;;;12.80;1.00;;;;;;4991271;28;20398;-89
2023/10/27 06:03:12;;;;;;;0.50;0.33;;;12.40;1.00;;;;;;4976095;28;20490;-90
2023/10/27 06:05:51;;;;;;;0.70;0.50;;;12.80;1.00;;;;;;4976122;28;20390;-90
2023/10/27 06:08:54;;;;;;;0.75;0.47;;;14.10;1.00;;;;;;4979474;28;20394;-89
2023/10/27 06:11:41;;;;;;;2.10;0.40;;;12.70;1.00;;;;;;4977773;28;20406;-90
2023/10/27 06:14:45;;;;;;;1.80;0.40;;;12.60;1.00;;;;;;4960265;28;20408;-89
2023/10/27 06:17:14;;;;;;;1.10;0.40;;;13.10;1.00;;;;;;4964047;28;20429;-89
2023/10/27 06:19:43;;;;;;;0.93;0.40;;;13.30;1.00;;;;;;4971850;28;20398;-90
2023/10/27 06:22:17;;;;;;;1.30;0.60;;;12.40;1.00;;;;;;4978989;28;20410;-89
2023/10/27 06:24:55;;;;;;;2.55;0.40;;;11.90;1.00;;;;;;4961866;28;20392;-89
2023/10/27 06:27:21;;;;;;;1.40;0.60;;;11.80;1.00;;;;;;4960653;28;20387;-88
2023/10/27 06:29:56;;;;;;;1.60;0.50;;;13.50;1.00;;;;;;4960127;28;20895;-89
2023/10/27 06:32:23;;;;;;;2.00;0.60;;;11.90;1.00;;;;;;4978956;28;20405;-87
2023/10/27 06:34:54;;;;;;;2.50;0.60;;;11.70;1.00;;;;;;4978970;28;20395;-89
2023/10/27 06:37:25;;;;;;;1.25;0.60;;;12.90;1.00;;;;;;4979928;28;20390;-89
2023/10/27 06:39:58;;;;;;;0.85;0.50;;;11.60;1.00;;;;;;4981651;28;20394;-89
2023/10/27 06:43:08;;;;;;;0.65;0.50;;;11.90;1.00;;;;;;4962974;28;20439;-90
2023/10/27 06:45:36;;;;;;;1.20;0.40;;;12.20;1.00;;;;;;5001058;28;20401;-89
2023/10/27 06:48:02;;;;;;;0.68;0.40;;;13.90;1.00;;;;;;4982772;28;20402;-87
2023/10/27 06:50:28;;;;;;;0.70;0.40;;;11.80;1.00;;;;;;4999269;28;20391;-88
2023/10/27 06:53:10;;;;;;;3.10;0.70;;;11.70;1.00;;;;;;4999345;28;20397;-89
2023/10/27 06:55:36;;;;;;;1.90;0.70;;;11.80;1.00;;;;;;4978941;28;20394;-89
2023/10/27 06:58:07;;;;;;;1.20;0.60;;;12.70;1.00;;;;;;4978627;28;20395;-89
2023/10/27 07:00:33;;;;;;;1.10;0.60;;;11.10;1.00;;;;;;4978416;28;20482;-88
2023/10/27 07:03:02;;;;;;;2.15;0.70;;;14.70;1.00;;;;;;4979937;28;20441;-89
2023/10/27 07:05:29;;;;;;;2.65;0.60;;;11.60;1.00;;;;;;4975055;28;20423;-88
2023/10/27 07:08:23;;;;;;;2.33;0.70;;;11.80;1.00;;;;;;4958941;28;20483;-89
2023/10/27 07:10:57;;;;;;;1.38;0.65;;;12.80;1.00;;;;;;4958292;28;20912;-89
2023/10/27 07:13:34;;;;;;;1.47;0.70;;;13.10;1.00;;;;;;4958795;28;20487;-90
2023/10/27 07:15:59;;;;;;;1.75;0.60;;;11.90;1.00;;;;;;4967952;28;20400;-89
2023/10/27 07:18:25;;;;;;;1.75;0.70;;;13.30;1.00;;;;;;4973554;28;20751;-91
2023/10/27 07:20:53;;;;;;;1.92;0.80;;;11.80;1.00;;;;;;4978434;28;20478;-89
2023/10/27 07:23:28;;;;;;;1.98;0.70;;;14.50;1.00;;;;;;4978694;28;20771;-90
2023/10/27 07:26:11;;;;;;;1.80;0.90;;;12.30;1.00;;;;;;4978228;28;20863;-89
2023/10/27 07:28:49;;;;;;;2.53;0.77;;;11.90;1.00;;;;;;4979025;28;21115;-89
2023/10/27 07:31:25;;;;;;;;;;;;;;;;;;;;;
2023/10/27 07:34:09;;;;;;;3.28;0.80;;;11.80;1.00;;;;;;4938077;29;20410;-90
2023/10/27 07:37:06;;;;;;;1.80;0.63;;;11.80;1.00;;;;;;4903294;29;20401;-89
2023/10/27 07:39:47;;;;;;;0.60;0.50;;;12.50;1.00;;;;;;4960378;28;20406;-88
2023/10/27 07:42:38;;;;;;;2.30;0.90;;;13.50;1.00;;;;;;4978319;28;20418;-89
2023/10/27 07:45:13;;;;;;;3.03;0.82;;;10.90;1.00;;;;;;4979212;28;20393;-90
2023/10/27 07:47:48;;;;;;;3.20;0.80;;;12.10;1.00;;;;;;4997348;28;20422;-90
2023/10/27 07:54:32;;;;;;;1.77;0.80;;;12.40;1.00;;;;;;4962944;28;20441;-90
2023/10/27 07:57:21;;;;;;;3.53;0.80;;;13.80;1.00;;;;;;4953170;29;20406;-91
2023/10/27 07:59:58;;;;;;;2.13;0.80;;;11.90;1.00;;;;;;4939425;29;20426;-90
2023/10/27 08:02:27;;;;;;;1.88;0.90;;;10.80;1.00;;;;;;4974275;28;20407;-90
2023/10/27 08:04:56;;;;;;;2.78;1.00;;;11.80;1.00;;;;;;4977877;28;20390;-90
2023/10/27 08:07:44;;;;;;;2.45;0.75;;;11.50;1.00;;;;;;4978607;28;20402;-90
2023/10/27 08:10:10;;;;;;;3.33;0.90;;;11.90;1.00;;;;;;4977648;28;20398;-89
2023/10/27 08:12:37;;;;;;;1.30;0.90;;;15.30;1.00;;;;;;4977742;28;20390;-89
2023/10/27 08:18:41;;;;;;;4.63;1.10;;;11.10;1.00;;;;;;4962131;28;20474;-89
2023/10/27 08:21:10;;;;;;;3.07;0.73;;;12.20;1.00;;;;;;4979732;28;20481;-90
2023/10/27 08:23:38;;;;;;;1.10;0.80;;;13.30;1.00;;;;;;4976836;28;20482;-90
2023/10/27 08:26:14;;;;;;;2.47;1.10;;;15.80;1.00;;;;;;4995102;28;20767;-90
2023/10/27 08:29:33;;;;;;;1.50;0.90;;;14.00;1.00;;;;;;4977260;28;20391;-90
2023/10/27 08:32:26;;;;;;;2.25;1.00;;;12.80;1.00;;;;;;4961023;28;20882;-91
2023/10/27 08:38:40;;;;;;;2.22;0.90;;;13.10;1.00;;;;;;4991300;28;20390;-89
2023/10/27 08:41:10;;;;;;;2.10;0.88;;;13.10;1.00;;;;;;4977219;28;20406;-90
2023/10/27 08:43:47;;;;;;;1.30;0.77;;;13.00;1.00;;;;;;4976962;28;20419;-90
2023/10/27 08:46:16;;;;;;;4.13;1.38;;;13.80;1.00;;;;;;4977969;28;20387;-90
2023/10/27 08:48:48;;;;;;;2.00;0.90;;;12.80;1.00;;;;;;4977907;28;20402;-91
2023/10/27 08:51:22;;;;;;;2.13;0.80;;;13.20;1.00;;;;;;4976873;28;20394;-88
2023/10/27 08:53:48;;;;;;;1.58;0.82;;;12.90;1.00;;;;;;4983867;28;20771;-90
2023/10/27 08:56:20;;;;;;;2.22;0.70;;;13.20;1.00;;;;;;4983394;28;20391;-89
2023/10/27 08:59:18;;;;;;;2.50;1.08;;;14.40;1.00;;;;;;4976584;28;20449;-90
2023/10/27 09:01:47;;;;;;;1.60;0.85;;;13.20;1.00;;;;;;4978179;28;20390;-89
2023/10/27 09:04:54;;;;;;;;;;;;;;;;;;;;;
2023/10/27 09:07:41;;;;;;;1.38;0.60;;;13.60;1.00;;;;;;4994263;28;20397;-90
2023/10/27 09:10:10;;;;;;;1.90;0.80;;;13.70;1.00;;;;;;4985913;28;20410;-90
2023/10/27 09:12:46;;;;;;;1.30;0.70;;;14.00;1.00;;;;;;4994069;28;20387;-89
2023/10/27 09:15:51;;;;;;;1.70;0.60;;;12.50;1.00;;;;;;4995804;28;20406;-89
2023/10/27 09:18:50;;;;;;;1.50;0.50;;;12.10;1.00;;;;;;4961446;28;20465;-90
2023/10/27 09:21:45;;;;;;;3.50;1.30;;;12.20;1.00;;;;;;4944658;28;20396;-90
2023/10/27 09:24:11;;;;;;;2.30;0.88;;;11.80;1.00;;;;;;4958089;28;20414;-88
2023/10/27 09:27:04;;;;;;;3.13;0.60;;;12.10;1.00;;;;;;4957334;28;20384;-89
2023/10/27 09:29:49;;;;;;;4.18;0.80;;;13.30;1.00;;;;;;4957671;28;20396;-89
2023/10/27 09:32:30;;;;;;;1.40;0.70;;;12.20;1.00;;;;;;4974757;28;20392;-90
2023/10/27 09:35:39;;;;;;;;;;;;;;;;;;;;;
2023/10/27 09:38:18;;;;;;;3.53;1.15;;;12.90;1.00;;;;;;4975681;28;20974;-89
2023/10/27 09:40:48;;;;;;;0.90;0.80;;;13.60;1.00;;;;;;4974819;28;20384;-89
2023/10/27 09:43:54;;;;;;;0.90;0.80;;;15.00;1.00;;;;;;4982452;28;20420;-89
2023/10/27 09:46:31;;;;;;;2.45;0.70;;;14.30;1.00;;;;;;4978087;28;20395;-89
2023/10/27 09:50:00;;;;;;;2.67;1.00;;;12.90;1.00;;;;;;4975603;28;20403;-88
2023/10/27 09:53:06;;;;;;;2.10;0.70;;;13.50;1.00;;;;;;4953847;29;20401;-88
2023/10/27 09:55:52;;;;;;;1.58;0.70;;;13.00;1.00;;;;;;4954817;29;20921;-90
2023/10/27 09:59:26;;;;;;;1.90;1.00;;;13.90;1.00;;;;;;4938088;29;20402;-89
2023/10/27 10:02:50;;;;;;;1.50;0.60;;;15.80;1.00;;;;;;4899736;29;20411;-90
2023/10/27 10:05:21;;;;;;;1.65;0.70;;;13.60;1.00;;;;;;4932926;29;20447;-90
2023/10/27 10:07:52;;;;;;;2.00;0.80;;;13.20;1.00;;;;;;4923440;29;20408;-89
2023/10/27 10:10:30;;;;;;;1.83;0.73;;;13.60;1.00;;;;;;5005924;23;20426;-84
2023/10/27 10:13:14;;;;;;;1.40;0.70;;;13.10;1.00;;;;;;4966568;28;20427;-82
2023/10/27 10:15:45;;;;;;;3.90;0.70;;;13.00;1.00;;;;;;4988683;28;20390;-84
2023/10/27 10:18:19;;;;;;;3.33;0.80;;;12.80;1.00;;;;;;4993427;28;20395;-84
2023/10/27 10:20:45;;;;;;;2.40;0.90;;;12.60;1.00;;;;;;4974979;28;20388;-85
2023/10/27 10:23:14;;;;;;;1.35;0.90;;;12.50;1.00;;;;;;4942129;28;20962;-84
2023/10/27 10:25:54;;;;;;;2.75;1.00;;;12.10;1.00;;;;;;4974504;28;20396;-84
2023/10/27 10:28:19;;;;;;;2.47;0.70;;;12.30;1.00;;;;;;4973280;28;20760;-84
2023/10/27 10:31:06;;;;;;;3.50;0.90;;;12.10;1.00;;;;;;4976496;28;20399;-84
2023/10/27 10:33:31;;;;;;;3.20;1.00;;;11.90;1.00;;;;;;4974647;28;20407;-85
2023/10/27 10:36:18;;;;;;;1.50;0.90;;;11.70;1.00;;;;;;4961989;28;20432;-86
2023/10/27 10:38:44;;;;;;;1.90;0.90;;;11.10;1.00;;;;;;4971093;28;20408;-81
2023/10/27 10:41:10;;;;;;;3.00;1.00;;;11.50;1.00;;;;;;4960393;28;20894;-81
2023/10/27 10:43:42;;;;;;;2.63;1.00;;;11.50;1.00;;;;;;4957911;28;20427;-81
2023/10/27 10:46:12;;;;;;;1.90;0.70;;;11.50;1.00;;;;;;4973678;28;20513;-81
2023/10/27 10:48:42;;;;;;;1.10;0.90;;;11.50;1.00;;;;;;4960327;28;20387;-80
2023/10/27 10:53:55;;;;;;;2.22;0.80;;;11.50;1.00;;;;;;4975888;28;20427;-83
2023/10/27 10:56:21;;;;;;;3.30;1.30;;;11.50;1.00;;;;;;4952153;28;20591;-82
2023/10/27 10:58:47;;;;;;;1.60;0.60;;;11.60;1.00;;;;;;4985286;28;20444;-81
2023/10/27 11:01:21;;;;;;;3.40;0.75;;;11.70;1.00;;;;;;4970757;28;20810;-82
2023/10/27 11:03:51;;;;;;;1.80;0.70;;;12.40;1.00;;;;;;4956290;29;20946;-83
2023/10/27 11:06:23;;;;;;;2.40;1.10;;;12.00;1.00;;;;;;4956286;28;20402;-83
2023/10/27 11:08:49;;;;;;;4.95;1.13;;;12.10;1.00;;;;;;4940133;28;20417;-82
2023/10/27 11:11:18;;;;;;;1.73;0.60;;;13.50;1.00;;;;;;4940205;29;20762;-83
2023/10/27 11:13:48;;;;;;;4.25;0.77;;;13.30;1.00;;;;;;4960171;29;20408;-84
2023/10/27 11:16:17;;;;;;;2.72;0.98;;;13.40;1.00;;;;;;4958457;29;20461;-84
2023/10/27 11:18:44;;;;;;;1.20;0.60;;;13.50;1.00;;;;;;4963246;28;20952;-85
2023/10/27 11:21:20;;;;;;;2.50;0.70;;;13.50;1.00;;;;;;4968244;28;20410;-82
2023/10/27 11:23:47;;;;;;;2.95;1.10;;;15.30;1.00;;;;;;4970332;28;20412;-83
2023/10/27 11:26:14;;;;;;;1.50;0.60;;;13.70;1.00;;;;;;4977619;28;20888;-84
2023/10/27 11:28:45;;;;;;;1.50;0.60;;;14.30;1.00;;;;;;4976706;28;20396;-84
2023/10/27 11:31:22;;;;;;;2.35;0.85;;;14.00;1.00;;;;;;4975618;28;20471;-83
2023/10/27 11:34:07;;;;;;;1.83;0.73;;;13.90;1.00;;;;;;4975795;28;20396;-84
2023/10/27 11:36:44;;;;;;;2.03;0.80;;;14.90;1.00;;;;;;4950029;28;20416;-85
2023/10/27 11:39:11;;;;;;;2.55;0.80;;;14.70;1.00;;;;;;4962660;28;20928;-84
2023/10/27 11:41:36;;;;;;;2.45;0.90;;;13.50;1.00;;;;;;4961411;29;20426;-83
2023/10/27 11:44:02;;;;;;;2.75;0.70;;;13.00;1.00;;;;;;4952084;28;20776;-84
2023/10/27 11:46:27;;;;;;;2.50;0.90;;;13.40;1.00;;;;;;4972287;28;20396;-80
2023/10/27 11:48:53;;;;;;;2.40;1.10;;;12.80;1.00;;;;;;4990556;28;20394;-80
2023/10/27 11:51:18;;;;;;;1.98;0.90;;;12.60;1.00;;;;;;4980344;28;20398;-78
2023/10/27 11:53:44;;;;;;;2.60;0.90;;;12.20;1.00;;;;;;4940819;29;20394;-82
2023/10/27 11:56:13;;;;;;;3.97;1.23;;;12.50;1.00;;;;;;4940667;28;20485;-83
2023/10/27 11:58:39;;;;;;;4.00;1.20;;;14.70;1.00;;;;;;4938739;29;20748;-82
2023/10/27 12:01:05;;;;;;;1.27;0.90;;;12.20;1.00;;;;;;4938864;29;20393;-81
2023/10/27 12:03:31;;;;;;;2.72;1.00;;;11.80;1.00;;;;;;4958337;28;20428;-82
2023/10/27 12:05:56;;;;;;;3.88;1.10;;;12.00;1.00;;;;;;4961079;28;20924;-82
2023/10/27 12:08:22;;;;;;;1.73;0.90;;;12.00;1.00;;;;;;4965119;28;20400;-83
2023/10/27 12:10:52;;;;;;;1.50;0.70;;;12.60;1.00;;;;;;4974964;28;20479;-84
2023/10/27 12:13:20;;;;;;;2.27;0.80;;;12.20;1.00;;;;;;4973238;28;20934;-84
2023/10/27 12:15:46;;;;;;;1.90;1.00;;;12.70;1.00;;;;;;4975369;28;20396;-84
2023/10/27 12:18:11;;;;;;;1.80;0.60;;;12.50;1.00;;;;;;4971083;28;20400;-83
2023/10/27 12:20:38;;;;;;;2.00;0.53;;;12.20;1.00;;;;;;4963566;28;20933;-84
2023/10/27 12:23:06;;;;;;;1.90;0.90;;;12.60;1.00;;;;;;4937878;29;20468;-85
2023/10/27 12:25:31;;;;;;;1.80;0.70;;;14.30;1.00;;;;;;4956044;29;20473;-83
2023/10/27 12:27:57;;;;;;;1.02;0.60;;;12.90;1.00;;;;;;4942232;28;20470;-85
2023/10/27 12:30:23;;;;;;;2.13;1.00;;;12.80;1.00;;;;;;4982932;28;20892;-82
2023/10/27 12:32:49;;;;;;;2.75;0.95;;;12.30;1.00;;;;;;4970584;28;20476;-84
2023/10/27 12:35:15;;;;;;;2.70;0.70;;;12.40;1.00;;;;;;4983667;28;20396;-84
2023/10/27 12:37:42;;;;;;;1.50;0.70;;;14.60;1.00;;;;;;4978717;28;20969;-84
2023/10/27 12:40:09;;;;;;;2.20;0.90;;;12.70;1.00;;;;;;4979101;28;20426;-84
2023/10/27 12:42:34;;;;;;;3.80;1.00;;;12.70;1.00;;;;;;4978554;28;20411;-83
2023/10/27 12:45:01;;;;;;;2.27;0.70;;;12.10;1.00;;;;;;4969612;28;20410;-84
2023/10/27 12:47:27;;;;;;;1.10;0.60;;;12.80;1.00;;;;;;4958170;29;20883;-83
2023/10/27 12:49:53;;;;;;;2.20;0.70;;;12.20;1.00;;;;;;4940991;29;20390;-84
2023/10/27 12:52:18;;;;;;;2.60;0.70;;;12.20;1.00;;;;;;4958428;29;20485;-85
2023/10/27 12:54:44;;;;;;;1.90;0.90;;;14.80;1.00;;;;;;4940325;29;20430;-84
2023/10/27 12:57:09;;;;;;;1.20;0.85;;;12.30;1.00;;;;;;4958852;29;20402;-85
2023/10/27 12:59:35;;;;;;;2.30;0.70;;;12.50;1.00;;;;;;4941726;29;20383;-83
2023/10/27 13:02:01;;;;;;;1.10;0.70;;;12.70;1.00;;;;;;4965044;28;20824;-84
2023/10/27 13:04:27;;;;;;;3.10;0.90;;;12.50;1.00;;;;;;4942508;29;20972;-84
2023/10/27 13:06:52;;;;;;;2.20;0.80;;;13.40;1.00;;;;;;4957436;29;20432;-83
2023/10/27 13:09:18;;;;;;;3.03;1.10;;;12.90;1.00;;;;;;4956304;28;20859;-83
2023/10/27 13:11:48;;;;;;;2.00;0.70;;;12.40;1.00;;;;;;4955423;29;20430;-83
2023/10/27 13:14:14;;;;;;;2.40;0.90;;;15.60;1.00;;;;;;4940404;29;20475;-84
2023/10/27 13:16:40;;;;;;;1.42;0.80;;;11.60;1.00;;;;;;4941691;29;20858;-84
2023/10/27 13:19:08;;;;;;;3.10;1.00;;;12.90;1.00;;;;;;4967216;28;20463;-84
2023/10/27 13:21:35;;;;;;;2.58;1.00;;;13.10;1.00;;;;;;4973535;28;20738;-83
2023/10/27 13:24:01;;;;;;;0.70;0.60;;;12.90;1.00;;;;;;4973951;28;20408;-82
2023/10/27 13:26:27;;;;;;;2.05;0.77;;;13.20;1.00;;;;;;4977287;28;20923;-83
2023/10/27 13:28:53;;;;;;;2.10;0.80;;;13.50;1.00;;;;;;4957719;28;20399;-85
2023/10/27 13:31:19;;;;;;;2.80;1.20;;;13.10;1.00;;;;;;4974130;28;20388;-83
2023/10/27 13:33:47;;;;;;;3.33;0.80;;;13.90;1.00;;;;;;4957425;28;20433;-82